createdAt,value
2018-09-19T00:00:19.588Z,18.74
2018-09-19T00:02:48.146Z,18.74
2018-09-19T00:05:16.745Z,18.71
2018-09-19T00:07:45.315Z,18.71
2018-09-19T00:10:13.887Z,18.62
2018-09-19T00:12:42.424Z,18.63
2018-09-19T00:15:10.986Z,18.60
2018-09-19T00:17:39.561Z,18.61
2018-09-19T00:20:08.200Z,18.50
2018-09-19T00:22:36.772Z,18.48
2018-09-19T00:25:05.385Z,18.44
2018-09-19T00:27:33.970Z,18.50
2018-09-19T00:30:02.497Z,18.54
2018-09-19T00:32:31.087Z,18.54
2018-09-19T00:34:59.660Z,18.46
2018-09-19T00:37:28.272Z,18.46
2018-09-19T00:39:56.850Z,18.46
2018-09-19T00:42:25.445Z,18.49
2018-09-19T00:44:54.001Z,18.50
2018-09-19T00:47:22.598Z,18.46
2018-09-19T00:49:51.153Z,18.65
2018-09-19T00:52:19.737Z,18.72
2018-09-19T00:54:48.306Z,18.63
2018-09-19T00:57:16.956Z,18.46
2018-09-19T00:59:45.530Z,18.33
2018-09-19T01:02:14.133Z,18.28
2018-09-19T01:04:42.721Z,18.24
2018-09-19T01:07:11.343Z,18.25
2018-09-19T01:09:39.923Z,18.22
2018-09-19T01:12:08.515Z,18.13
2018-09-19T01:14:37.053Z,18.07
2018-09-19T01:17:05.688Z,18.05
2018-09-19T01:19:34.240Z,18.08
2018-09-19T01:22:02.861Z,18.00
2018-09-19T01:24:31.439Z,17.89
2018-09-19T01:27:00.065Z,17.95
2018-09-19T01:29:28.604Z,17.90
2018-09-19T01:31:57.222Z,17.95
2018-09-19T01:34:25.796Z,18.06
2018-09-19T01:36:54.404Z,18.22
2018-09-19T01:39:22.957Z,18.40
2018-09-19T01:41:51.549Z,18.40
2018-09-19T01:44:20.125Z,18.58
2018-09-19T01:46:48.681Z,18.54
2018-09-19T01:49:17.252Z,18.27
2018-09-19T01:51:45.894Z,18.18
2018-09-19T01:54:14.463Z,18.11
2018-09-19T01:56:43.062Z,18.14
2018-09-19T01:59:11.634Z,18.28
2018-09-19T02:01:40.289Z,18.28
2018-09-19T02:04:08.801Z,18.31
2018-09-19T02:06:37.387Z,18.38
2018-09-19T02:09:09.123Z,18.42
2018-09-19T02:11:37.826Z,18.50
2018-09-19T02:14:06.671Z,18.55
2018-09-19T02:16:35.272Z,18.58
2018-09-19T02:19:03.866Z,18.60
2018-09-19T02:21:32.458Z,18.61
2018-09-19T02:24:01.076Z,18.58
2018-09-19T02:26:29.604Z,18.51
2018-09-19T02:28:58.224Z,18.43
2018-09-19T02:31:27.119Z,18.21
2018-09-19T02:33:56.144Z,18.05
2018-09-19T02:36:26.041Z,18.18
2018-09-19T02:38:56.702Z,18.08
2018-09-19T02:41:25.300Z,18.21
2018-09-19T02:43:53.931Z,18.25
2018-09-19T02:46:22.514Z,18.29
2018-09-19T02:48:51.117Z,18.43
2018-09-19T02:51:19.665Z,18.40
2018-09-19T02:53:48.896Z,18.45
2018-09-19T02:56:17.509Z,18.43
2018-09-19T02:58:46.104Z,18.49
2018-09-19T03:01:14.662Z,18.52
2018-09-19T03:03:43.281Z,18.41
2018-09-19T03:06:11.857Z,18.12
2018-09-19T03:08:40.442Z,17.75
2018-09-19T03:11:09.001Z,17.55
2018-09-19T03:13:37.648Z,17.47
2018-09-19T03:16:06.213Z,17.42
2018-09-19T03:18:34.806Z,17.43
2018-09-19T03:21:03.363Z,17.44
2018-09-19T03:23:31.949Z,17.26
2018-09-19T03:26:00.491Z,17.29
2018-09-19T03:28:29.076Z,17.34
2018-09-19T03:30:57.626Z,17.46
2018-09-19T03:33:26.196Z,17.57
2018-09-19T03:35:54.765Z,17.66
2018-09-19T03:38:23.408Z,17.74
2018-09-19T03:40:51.983Z,17.82
2018-09-19T03:43:20.567Z,17.89
2018-09-19T03:45:49.153Z,17.80
2018-09-19T03:48:17.746Z,17.80
2018-09-19T03:50:46.328Z,17.80
2018-09-19T03:53:14.911Z,17.70
2018-09-19T03:55:43.497Z,17.69
2018-09-19T03:58:12.101Z,17.73
2018-09-19T04:00:40.739Z,17.77
2018-09-19T04:03:09.357Z,17.70
2018-09-19T04:05:37.944Z,17.81
2018-09-19T04:08:06.668Z,17.79
2018-09-19T04:10:35.264Z,17.88
2018-09-19T04:13:03.875Z,17.85
2018-09-19T04:15:32.420Z,17.94
2018-09-19T04:18:01.013Z,18.02
2018-09-19T04:20:29.599Z,17.91
2018-09-19T04:22:58.503Z,17.80
2018-09-19T04:25:27.070Z,17.69
2018-09-19T04:27:55.625Z,17.84
2018-09-19T04:30:24.231Z,17.86
2018-09-19T04:32:52.873Z,17.85
2018-09-19T04:35:21.474Z,17.90
2018-09-19T04:37:50.054Z,18.05
2018-09-19T04:40:18.680Z,18.03
2018-09-19T04:42:47.216Z,18.12
2018-09-19T04:45:15.912Z,18.09
2018-09-19T04:47:44.422Z,18.06
2018-09-19T04:50:13.008Z,18.04
2018-09-19T04:52:41.576Z,18.07
2018-09-19T04:55:10.577Z,18.03
2018-09-19T04:57:42.979Z,18.05
2018-09-19T05:00:11.603Z,18.16
2018-09-19T05:02:40.741Z,18.28
2018-09-19T05:05:09.806Z,18.32
2018-09-19T05:07:47.660Z,18.28
2018-09-19T05:10:16.336Z,18.26
2018-09-19T05:12:45.016Z,18.02
2018-09-19T05:15:14.200Z,18.20
2018-09-19T05:17:43.016Z,18.28
2018-09-19T05:20:11.590Z,18.28
2018-09-19T05:22:40.163Z,18.37
2018-09-19T05:25:09.834Z,18.35
2018-09-19T05:27:38.424Z,18.26
2018-09-19T05:30:07.733Z,18.34
2018-09-19T05:32:36.355Z,18.44
2018-09-19T05:35:08.250Z,18.45
2018-09-19T05:37:38.640Z,18.47
2018-09-19T05:40:07.272Z,18.48
2018-09-19T05:42:35.840Z,18.55
2018-09-19T05:45:04.551Z,18.54
2018-09-19T05:47:33.115Z,18.46
2018-09-19T05:50:01.723Z,18.51
2018-09-19T05:52:30.286Z,18.45
2018-09-19T05:55:00.077Z,18.50
2018-09-19T05:57:30.196Z,18.53
2018-09-19T05:59:58.837Z,18.56
2018-09-19T06:02:27.388Z,18.49
2018-09-19T06:04:56.576Z,18.58
2018-09-19T06:07:25.299Z,18.57
2018-09-19T06:09:53.918Z,18.65
2018-09-19T06:12:22.477Z,18.70
2018-09-19T06:14:51.068Z,18.58
2018-09-19T06:17:19.747Z,18.73
2018-09-19T06:19:48.482Z,18.63
2018-09-19T06:22:17.042Z,18.60
2018-09-19T06:24:45.648Z,18.51
2018-09-19T06:27:14.259Z,18.49
2018-09-19T06:29:42.874Z,18.54
2018-09-19T06:32:12.093Z,18.41
2018-09-19T06:34:40.717Z,18.47
2018-09-19T06:37:09.400Z,18.37
2018-09-19T06:39:38.002Z,18.27
2018-09-19T06:42:06.624Z,18.60
2018-09-19T06:44:35.252Z,18.83
2018-09-19T06:47:03.929Z,18.95
2018-09-19T06:49:32.476Z,19.17
2018-09-19T06:52:01.134Z,18.92
2018-09-19T06:54:29.652Z,19.01
2018-09-19T06:56:58.258Z,19.13
2018-09-19T06:59:26.816Z,19.30
2018-09-19T07:01:55.409Z,19.77
2018-09-19T07:04:23.988Z,19.91
2018-09-19T07:06:52.648Z,20.32
2018-09-19T07:09:21.212Z,20.36
2018-09-19T07:11:49.781Z,20.62
2018-09-19T07:14:18.439Z,20.79
2018-09-19T07:16:47.010Z,20.76
2018-09-19T07:19:15.564Z,20.71
2018-09-19T07:21:44.133Z,20.50
2018-09-19T07:24:12.672Z,20.17
2018-09-19T07:26:41.283Z,20.35
2018-09-19T07:29:09.848Z,20.43
2018-09-19T07:31:38.430Z,20.21
2018-09-19T07:34:07.001Z,20.04
2018-09-19T07:36:35.592Z,19.87
2018-09-19T07:39:04.651Z,20.14
2018-09-19T07:41:33.286Z,20.34
2018-09-19T07:44:01.844Z,20.23
2018-09-19T07:46:30.524Z,20.22
2018-09-19T07:48:59.036Z,19.96
2018-09-19T07:51:27.637Z,19.80
2018-09-19T07:53:56.214Z,19.64
2018-09-19T07:56:24.808Z,19.49
2018-09-19T07:58:53.545Z,19.18
2018-09-19T08:01:22.227Z,19.17
2018-09-19T08:03:50.755Z,19.09
2018-09-19T08:06:19.317Z,19.14
2018-09-19T08:08:47.865Z,19.60
2018-09-19T08:11:16.485Z,20.26
2018-09-19T08:13:45.035Z,20.61
2018-09-19T08:16:13.647Z,20.86
2018-09-19T08:18:42.229Z,20.47
2018-09-19T08:21:10.868Z,20.31
2018-09-19T08:23:39.425Z,20.62
2018-09-19T08:26:08.038Z,20.67
2018-09-19T08:28:36.588Z,20.59
2018-09-19T08:31:05.186Z,20.74
2018-09-19T08:33:33.793Z,20.80
2018-09-19T08:36:02.396Z,21.12
2018-09-19T08:38:30.959Z,21.74
2018-09-19T08:40:59.543Z,22.14
2018-09-19T08:43:28.126Z,22.28
2018-09-19T08:45:56.727Z,22.20
2018-09-19T08:48:25.282Z,22.23
2018-09-19T08:50:53.933Z,22.51
2018-09-19T08:53:22.535Z,22.72
2018-09-19T08:55:51.158Z,22.96
2018-09-19T08:58:19.857Z,22.63
2018-09-19T09:00:52.184Z,22.41
2018-09-19T09:03:20.809Z,22.27
2018-09-19T09:05:49.392Z,22.17
2018-09-19T09:08:18.025Z,22.27
2018-09-19T09:10:48.411Z,22.00
2018-09-19T09:13:17.932Z,21.75
2018-09-19T09:15:46.489Z,21.87
2018-09-19T09:18:15.082Z,22.20
2018-09-19T09:20:43.692Z,22.73
2018-09-19T09:23:12.325Z,23.21
2018-09-19T09:25:40.938Z,23.56
2018-09-19T09:28:09.996Z,23.60
2018-09-19T09:30:38.546Z,24.07
2018-09-19T09:33:07.596Z,24.22
2018-09-19T09:35:36.330Z,24.30
2018-09-19T09:38:04.920Z,24.37
2018-09-19T09:40:33.553Z,24.72
2018-09-19T09:43:02.132Z,24.78
2018-09-19T09:45:30.693Z,25.30
2018-09-19T09:47:59.283Z,25.36
2018-09-19T09:50:27.875Z,26.25
2018-09-19T09:52:56.407Z,26.66
2018-09-19T09:55:24.977Z,26.66
2018-09-19T09:57:53.563Z,26.30
2018-09-19T10:00:27.533Z,26.19
2018-09-19T10:02:56.104Z,26.81
2018-09-19T10:05:25.455Z,27.14
2018-09-19T10:07:54.792Z,27.21
2018-09-19T10:10:23.333Z,27.98
2018-09-19T10:12:51.915Z,27.43
2018-09-19T10:15:20.456Z,27.27
2018-09-19T10:17:49.161Z,27.10
2018-09-19T10:20:17.758Z,27.19
2018-09-19T10:22:46.364Z,26.88
2018-09-19T10:25:14.922Z,27.19
2018-09-19T10:27:43.497Z,27.77
2018-09-19T10:30:12.669Z,28.89
2018-09-19T10:32:41.263Z,29.61
2018-09-19T10:35:09.814Z,30.39
2018-09-19T10:37:38.393Z,29.88
2018-09-19T10:40:07.280Z,30.42
2018-09-19T10:42:35.856Z,30.41
2018-09-19T10:45:04.823Z,29.31
2018-09-19T10:47:34.449Z,29.49
2018-09-19T10:50:03.436Z,30.24
2018-09-19T10:52:32.052Z,31.87
2018-09-19T10:55:00.794Z,32.56
2018-09-19T10:57:30.144Z,31.72
2018-09-19T10:59:58.846Z,30.99
2018-09-19T11:02:27.428Z,31.15
2018-09-19T11:04:55.988Z,31.63
2018-09-19T11:07:24.567Z,32.10
2018-09-19T11:09:53.315Z,33.12
2018-09-19T11:12:21.845Z,33.44
2018-09-19T11:14:50.411Z,34.38
2018-09-19T11:17:18.969Z,35.30
2018-09-19T11:19:47.572Z,36.43
2018-09-19T11:22:16.156Z,36.74
2018-09-19T11:24:44.784Z,36.28
2018-09-19T11:27:13.841Z,36.35
2018-09-19T11:29:42.482Z,36.03
2018-09-19T11:32:11.413Z,35.61
2018-09-19T11:34:40.449Z,36.05
2018-09-19T11:37:11.167Z,36.98
2018-09-19T11:39:41.082Z,36.72
2018-09-19T11:42:09.680Z,36.83
2018-09-19T11:44:38.253Z,37.32
2018-09-19T11:47:06.973Z,38.16
2018-09-19T11:49:35.553Z,38.58
2018-09-19T11:52:04.104Z,38.43
2018-09-19T11:54:32.825Z,39.10
2018-09-19T11:57:01.344Z,38.45
2018-09-19T11:59:29.930Z,38.49
2018-09-19T12:01:58.530Z,37.10
2018-09-19T12:04:27.110Z,36.14
2018-09-19T12:06:55.667Z,37.02
2018-09-19T12:09:24.223Z,35.41
2018-09-19T12:11:52.764Z,35.38
2018-09-19T12:14:21.371Z,35.22
2018-09-19T12:16:49.928Z,35.32
2018-09-19T12:19:18.507Z,34.21
2018-09-19T12:21:47.025Z,34.14
2018-09-19T12:24:15.612Z,33.90
2018-09-19T12:26:44.210Z,35.17
2018-09-19T12:29:12.757Z,34.68
2018-09-19T12:31:41.311Z,34.86
2018-09-19T12:34:09.876Z,35.19
2018-09-19T12:36:38.424Z,34.51
2018-09-19T12:39:08.871Z,35.21
2018-09-19T12:41:37.443Z,35.54
2018-09-19T12:44:06.061Z,34.86
2018-09-19T12:46:34.954Z,34.74
2018-09-19T12:49:03.576Z,35.53
2018-09-19T12:51:32.121Z,35.14
2018-09-19T12:54:00.692Z,35.42
2018-09-19T12:56:29.300Z,35.53
2018-09-19T12:58:57.935Z,34.60
2018-09-19T13:01:26.475Z,35.70
2018-09-19T13:03:55.055Z,36.41
2018-09-19T13:06:23.654Z,34.03
2018-09-19T13:08:52.266Z,31.42
2018-09-19T13:11:20.841Z,30.62
2018-09-19T13:13:49.425Z,30.41
2018-09-19T13:16:17.956Z,30.48
2018-09-19T13:18:46.547Z,31.58
2018-09-19T13:21:15.156Z,32.69
2018-09-19T13:23:43.719Z,32.79
2018-09-19T13:26:12.317Z,33.50
2018-09-19T13:28:40.884Z,32.64
2018-09-19T13:31:09.488Z,31.20
2018-09-19T13:33:38.095Z,30.47
2018-09-19T13:36:07.536Z,30.33
2018-09-19T13:38:36.091Z,30.40
2018-09-19T13:41:04.813Z,30.28
2018-09-19T13:43:33.407Z,30.25
2018-09-19T13:46:02.032Z,30.74
2018-09-19T13:48:30.621Z,30.41
2018-09-19T13:51:11.544Z,30.57
2018-09-19T13:53:40.869Z,31.79
2018-09-19T13:56:09.473Z,32.36
2018-09-19T13:58:38.014Z,32.79
2018-09-19T14:01:06.677Z,32.50
2018-09-19T14:03:35.259Z,33.42
2018-09-19T14:06:03.865Z,33.90
2018-09-19T14:08:32.428Z,34.10
2018-09-19T14:11:01.033Z,34.16
2018-09-19T14:13:29.592Z,33.88
2018-09-19T14:15:58.749Z,33.08
2018-09-19T14:18:27.372Z,33.27
2018-09-19T14:20:55.993Z,33.89
2018-09-19T14:23:24.540Z,34.53
2018-09-19T14:25:53.147Z,34.30
2018-09-19T14:28:21.808Z,34.97
2018-09-19T14:30:50.343Z,35.33
2018-09-19T14:33:18.961Z,34.98
2018-09-19T14:35:47.591Z,34.33
2018-09-19T14:38:16.246Z,32.85
2018-09-19T14:40:44.821Z,33.35
2018-09-19T14:43:13.412Z,33.57
2018-09-19T14:45:42.009Z,32.37
2018-09-19T14:48:10.540Z,31.23
2018-09-19T14:50:39.120Z,30.37
2018-09-19T14:53:07.702Z,30.10
2018-09-19T14:55:36.295Z,29.38
2018-09-19T14:58:04.893Z,28.71
2018-09-19T15:00:33.490Z,29.40
2018-09-19T15:03:02.069Z,30.42
2018-09-19T15:05:30.644Z,30.92
2018-09-19T15:07:59.235Z,31.00
2018-09-19T15:11:52.191Z,31.54
2018-09-19T15:14:21.434Z,32.49
2018-09-19T15:16:50.048Z,32.37
2018-09-19T15:19:18.636Z,31.96
2018-09-19T15:21:47.821Z,31.92
2018-09-19T15:24:16.412Z,31.90
2018-09-19T15:26:44.984Z,32.18
2018-09-19T15:29:13.505Z,32.59
2018-09-19T15:31:42.072Z,32.55
2018-09-19T15:34:10.584Z,33.37
2018-09-19T15:36:41.369Z,33.27
2018-09-19T15:39:10.448Z,33.07
2018-09-19T15:41:39.012Z,33.48
2018-09-19T15:44:07.603Z,33.14
2018-09-19T15:46:36.657Z,33.08
2018-09-19T15:49:05.192Z,32.84
2018-09-19T15:51:33.893Z,33.06
2018-09-19T15:54:02.455Z,32.90
2018-09-19T15:56:31.028Z,32.96
2018-09-19T15:58:59.599Z,32.62
2018-09-19T16:01:28.171Z,32.35
2018-09-19T16:03:56.760Z,32.26
2018-09-19T16:06:25.344Z,32.41
2018-09-19T16:08:53.877Z,32.28
2018-09-19T16:11:22.484Z,32.05
2018-09-19T16:13:51.024Z,32.07
2018-09-19T16:16:19.704Z,31.88
2018-09-19T16:18:48.263Z,31.74
2018-09-19T16:21:16.856Z,31.54
2018-09-19T16:23:45.376Z,31.25
2018-09-19T16:26:13.966Z,30.51
2018-09-19T16:28:42.480Z,30.56
2018-09-19T16:31:11.026Z,30.43
2018-09-19T16:33:39.576Z,30.00
2018-09-19T16:36:08.101Z,29.72
2018-09-19T16:38:36.643Z,29.18
2018-09-19T16:41:05.208Z,29.43
2018-09-19T16:43:33.829Z,29.39
2018-09-19T16:46:02.401Z,28.95
2018-09-19T16:48:31.232Z,28.55
2018-09-19T16:50:59.768Z,28.05
2018-09-19T16:53:28.356Z,27.88
2018-09-19T16:55:56.944Z,27.54
2018-09-19T16:58:25.525Z,27.15
2018-09-19T17:00:54.057Z,26.80
2018-09-19T17:03:22.608Z,26.48
2018-09-19T17:05:51.183Z,25.99
2018-09-19T17:08:19.702Z,25.61
2018-09-19T17:10:48.237Z,25.35
2018-09-19T17:13:17.038Z,25.02
2018-09-19T17:15:46.142Z,24.68
2018-09-19T17:18:14.671Z,24.38
2018-09-19T17:20:43.209Z,24.11
2018-09-19T17:23:11.776Z,23.97
2018-09-19T17:25:40.519Z,23.70
2018-09-19T17:28:09.033Z,23.58
2018-09-19T17:30:37.553Z,23.46
2018-09-19T17:33:06.165Z,23.21
2018-09-19T17:35:34.712Z,23.11
2018-09-19T17:38:03.344Z,22.89
2018-09-19T17:40:31.927Z,22.78
2018-09-19T17:43:00.516Z,22.66
2018-09-19T17:45:29.089Z,22.53
2018-09-19T17:47:57.764Z,22.47
2018-09-19T17:52:54.014Z,22.36
2018-09-19T17:55:22.626Z,22.33
2018-09-19T17:57:51.188Z,22.24
2018-09-19T18:00:19.797Z,22.18
2018-09-19T18:02:48.370Z,22.09
2018-09-19T18:05:16.980Z,22.13
2018-09-19T18:07:45.516Z,21.93
2018-09-19T18:10:14.138Z,21.87
2018-09-19T18:12:42.740Z,21.90
2018-09-19T18:15:11.332Z,21.83
2018-09-19T18:17:39.924Z,21.75
2018-09-19T18:20:09.154Z,21.65
2018-09-19T18:22:37.678Z,21.61
2018-09-19T18:25:06.328Z,21.47
2018-09-19T18:27:35.745Z,21.43
2018-09-19T18:30:04.330Z,21.26
2018-09-19T18:32:32.877Z,21.29
2018-09-19T18:35:01.469Z,21.18
2018-09-19T18:37:30.017Z,21.18
2018-09-19T18:39:58.616Z,21.13
2018-09-19T18:42:27.186Z,21.05
2018-09-19T18:44:55.782Z,21.00
2018-09-19T18:47:24.405Z,20.96
2018-09-19T18:49:53.068Z,20.82
2018-09-19T18:52:21.651Z,20.75
2018-09-19T18:54:50.289Z,20.76
2018-09-19T18:57:18.850Z,20.63
2018-09-19T18:59:47.451Z,20.52
2018-09-19T19:02:17.053Z,20.43
2018-09-19T19:04:45.688Z,20.42
2018-09-19T19:07:14.257Z,20.46
2018-09-19T19:09:42.847Z,20.35
2018-09-19T19:12:11.439Z,20.36
2018-09-19T19:14:40.022Z,20.33
2018-09-19T19:17:08.642Z,20.33
2018-09-19T19:19:37.246Z,20.21
2018-09-19T19:22:05.890Z,20.10
2018-09-19T19:24:34.448Z,20.03
2018-09-19T19:27:03.166Z,20.08
2018-09-19T19:29:31.778Z,20.02
2018-09-19T19:32:00.467Z,19.75
2018-09-19T19:34:29.007Z,19.67
2018-09-19T19:36:57.616Z,19.68
2018-09-19T19:39:26.227Z,19.65
2018-09-19T19:41:55.113Z,19.37
2018-09-19T19:44:23.691Z,19.11
2018-09-19T19:46:52.293Z,18.97
2018-09-19T19:49:20.857Z,18.81
2018-09-19T19:51:49.460Z,18.84
2018-09-19T19:54:18.061Z,18.90
2018-09-19T19:56:46.671Z,18.96
2018-09-19T19:59:15.272Z,19.00
2018-09-19T20:01:43.863Z,18.92
2018-09-19T20:04:12.415Z,18.88
2018-09-19T20:06:41.037Z,18.94
2018-09-19T20:09:09.996Z,19.02
2018-09-19T20:11:39.097Z,18.92
2018-09-19T20:14:07.768Z,18.88
2018-09-19T20:16:36.393Z,18.87
2018-09-19T20:19:04.952Z,18.92
2018-09-19T20:21:35.476Z,18.88
2018-09-19T20:24:04.229Z,18.88
2018-09-19T20:26:32.835Z,18.80
2018-09-19T20:29:01.420Z,18.75
2018-09-19T20:31:30.113Z,18.71
2018-09-19T20:33:58.642Z,18.70
2018-09-19T20:36:27.473Z,18.66
2018-09-19T20:38:56.072Z,18.65
2018-09-19T20:41:25.296Z,18.63
2018-09-19T20:43:53.859Z,18.56
2018-09-19T20:46:22.463Z,18.55
2018-09-19T20:48:51.108Z,18.57
2018-09-19T20:51:19.776Z,18.63
2018-09-19T20:53:48.347Z,18.50
2018-09-19T20:56:17.012Z,18.54
2018-09-19T20:58:45.646Z,18.57
2018-09-19T21:01:14.245Z,18.50
2018-09-19T21:03:42.849Z,18.46
2018-09-19T21:06:12.227Z,18.33
2018-09-19T21:15:42.477Z,17.63
2018-09-19T21:18:11.090Z,17.58
2018-09-19T21:20:39.674Z,17.65
2018-09-19T21:23:08.314Z,17.56
2018-09-19T21:25:36.880Z,17.56
2018-09-19T21:28:05.560Z,17.71
2018-09-19T21:30:34.146Z,17.68
2018-09-19T21:33:02.775Z,17.74
2018-09-19T21:35:31.541Z,17.78
2018-09-19T21:38:00.136Z,17.73
2018-09-19T21:40:28.733Z,17.54
2018-09-19T21:42:57.313Z,17.40
2018-09-19T21:45:25.869Z,17.43
2018-09-19T21:47:54.506Z,17.41
2018-09-19T21:50:23.152Z,17.37
2018-09-19T21:52:51.737Z,17.31
2018-09-19T21:55:20.316Z,17.26
2018-09-19T21:57:48.933Z,17.09
2018-09-19T22:00:17.519Z,17.06
2018-09-19T22:02:46.118Z,17.22
2018-09-19T22:05:14.690Z,17.37
2018-09-19T22:07:43.274Z,17.40
2018-09-19T22:10:11.840Z,17.42
2018-09-19T22:12:40.424Z,17.44
2018-09-19T22:15:09.032Z,17.40
2018-09-19T22:17:37.670Z,17.46
2018-09-19T22:20:06.244Z,17.44
2018-09-19T22:22:34.913Z,17.45
2018-09-19T22:25:03.492Z,17.50
2018-09-19T22:27:32.912Z,17.43
2018-09-19T22:30:01.504Z,17.42
2018-09-19T22:32:30.048Z,17.38
2018-09-19T22:34:58.704Z,17.30
2018-09-19T22:37:27.266Z,17.29
2018-09-19T22:39:55.861Z,17.27
2018-09-19T22:42:24.430Z,17.23
2018-09-19T22:44:53.090Z,17.19
2018-09-19T22:47:21.677Z,17.20
2018-09-19T22:49:50.296Z,17.14
2018-09-19T22:52:18.845Z,17.15
2018-09-19T22:54:47.456Z,17.15
2018-09-19T22:57:16.025Z,17.10
2018-09-19T22:59:44.619Z,17.14
2018-09-19T23:02:13.213Z,17.20
2018-09-19T23:04:41.837Z,17.22
2018-09-19T23:07:10.417Z,17.20
2018-09-19T23:09:39.025Z,17.14
2018-09-19T23:12:07.597Z,17.04
2018-09-19T23:14:36.184Z,17.04
2018-09-19T23:17:04.774Z,17.08
2018-09-19T23:19:33.363Z,17.01
2018-09-19T23:22:02.181Z,16.96
2018-09-19T23:24:30.816Z,17.00
2018-09-19T23:26:59.391Z,17.00
2018-09-19T23:29:28.037Z,17.05
2018-09-19T23:31:56.607Z,16.85
2018-09-19T23:34:25.225Z,16.75
2018-09-19T23:36:53.778Z,16.45
2018-09-19T23:39:22.394Z,16.49
2018-09-19T23:41:50.957Z,16.55
2018-09-19T23:44:19.559Z,16.64
2018-09-19T23:46:48.149Z,16.58
2018-09-19T23:49:16.742Z,16.62
2018-09-19T23:51:45.290Z,16.62
2018-09-19T23:54:13.893Z,16.54
2018-09-19T23:56:42.452Z,16.56
2018-09-19T23:59:11.096Z,16.60
